sensor_id;sensor_type;location;lat;lon;timestamp;pressure;altitude;pressure_sealevel;temperature;humidity
80699;BME280;70062;51.658;5.658;2024-02-14T00:00:55;101255.57;;;20.94;38.14
80699;BME280;70062;51.658;5.658;2024-02-14T00:04:36;101248.04;;;20.91;38.07
80699;BME280;70062;51.658;5.658;2024-02-14T00:08:12;101251.20;;;20.81;38.01
80699;BME280;70062;51.658;5.658;2024-02-14T00:11:41;101252.83;;;20.62;38.23
80699;BME280;70062;51.658;5.658;2024-02-14T00:16:19;101252.48;;;20.29;38.80
80699;BME280;70062;51.658;5.658;2024-02-14T00:20:51;101248.38;;;20.55;38.94
80699;BME280;70062;51.658;5.658;2024-02-14T00:25:19;101243.45;;;20.88;38.34
80699;BME280;70062;51.658;5.658;2024-02-14T00:29:27;101236.42;;;20.98;37.98
80699;BME280;70062;51.658;5.658;2024-02-14T00:33:34;101223.95;;;20.92;37.99
80699;BME280;70062;51.658;5.658;2024-02-14T00:37:41;101223.56;;;20.76;38.01
80699;BME280;70062;51.658;5.658;2024-02-14T00:42:05;101221.36;;;20.45;38.44
80699;BME280;70062;51.658;5.658;2024-02-14T00:46:38;101215.58;;;20.42;38.91
80699;BME280;70062;51.658;5.658;2024-02-14T00:50:13;101221.67;;;20.79;38.55
80699;BME280;70062;51.658;5.658;2024-02-14T00:53:51;101220.20;;;20.98;38.13
80699;BME280;70062;51.658;5.658;2024-02-14T00:57:19;101211.85;;;21.01;37.83
80699;BME280;70062;51.658;5.658;2024-02-14T01:00:47;101212.27;;;20.92;37.77
80699;BME280;70062;51.658;5.658;2024-02-14T01:04:16;101215.89;;;20.77;37.96
80699;BME280;70062;51.658;5.658;2024-02-14T01:07:46;101216.64;;;20.56;38.25
80699;BME280;70062;51.658;5.658;2024-02-14T01:11:13;101221.94;;;20.27;38.62
80699;BME280;70062;51.658;5.658;2024-02-14T01:14:41;101221.23;;;20.38;38.95
80699;BME280;70062;51.658;5.658;2024-02-14T01:18:10;101218.88;;;20.54;38.70
80699;BME280;70062;51.658;5.658;2024-02-14T01:21:39;101218.75;;;20.57;38.66
80699;BME280;70062;51.658;5.658;2024-02-14T01:25:06;101219.15;;;20.49;38.54
80699;BME280;70062;51.658;5.658;2024-02-14T01:28:34;101229.01;;;20.33;38.72
80699;BME280;70062;51.658;5.658;2024-02-14T01:32:04;101233.93;;;20.14;38.89
80699;BME280;70062;51.658;5.658;2024-02-14T01:35:31;101225.96;;;19.85;39.23
80699;BME280;70062;51.658;5.658;2024-02-14T01:38:59;101225.67;;;19.69;40.04
80699;BME280;70062;51.658;5.658;2024-02-14T01:42:29;101219.94;;;20.00;39.89
80699;BME280;70062;51.658;5.658;2024-02-14T01:46:03;101219.16;;;20.38;39.37
80699;BME280;70062;51.658;5.658;2024-02-14T01:49:29;101216.63;;;20.56;39.03
80699;BME280;70062;51.658;5.658;2024-02-14T01:53:00;101215.28;;;20.59;38.73
80699;BME280;70062;51.658;5.658;2024-02-14T01:56:30;101215.71;;;20.52;38.62
80699;BME280;70062;51.658;5.658;2024-02-14T01:59:57;101210.45;;;20.39;38.76
80699;BME280;70062;51.658;5.658;2024-02-14T02:03:31;101224.67;;;20.13;39.17
80699;BME280;70062;51.658;5.658;2024-02-14T02:06:57;101212.22;;;19.97;39.68
80699;BME280;70062;51.658;5.658;2024-02-14T02:10:26;101217.80;;;20.29;39.53
80699;BME280;70062;51.658;5.658;2024-02-14T02:13:54;101213.88;;;20.58;38.95
80699;BME280;70062;51.658;5.658;2024-02-14T02:17:22;101220.34;;;20.71;38.65
80699;BME280;70062;51.658;5.658;2024-02-14T02:20:52;101218.94;;;20.71;38.56
80699;BME280;70062;51.658;5.658;2024-02-14T02:24:19;101224.39;;;20.61;38.50
80699;BME280;70062;51.658;5.658;2024-02-14T02:27:54;101223.98;;;20.45;38.51
80699;BME280;70062;51.658;5.658;2024-02-14T02:31:24;101233.79;;;20.16;39.02
80699;BME280;70062;51.658;5.658;2024-02-14T02:34:52;101219.56;;;20.09;39.43
80699;BME280;70062;51.658;5.658;2024-02-14T02:38:19;101214.70;;;20.44;39.18
80699;BME280;70062;51.658;5.658;2024-02-14T02:41:48;101215.07;;;20.69;38.84
80699;BME280;70062;51.658;5.658;2024-02-14T02:45:17;101219.92;;;20.79;38.59
80699;BME280;70062;51.658;5.658;2024-02-14T02:48:44;101221.45;;;20.76;38.33
80699;BME280;70062;51.658;5.658;2024-02-14T02:52:17;101216.59;;;20.65;38.37
80699;BME280;70062;51.658;5.658;2024-02-14T02:55:45;101216.87;;;20.48;38.58
80699;BME280;70062;51.658;5.658;2024-02-14T02:59:11;101222.48;;;20.17;39.05
80699;BME280;70062;51.658;5.658;2024-02-14T03:02:40;101220.39;;;20.17;39.59
80699;BME280;70062;51.658;5.658;2024-02-14T03:06:10;101209.77;;;20.51;39.17
80699;BME280;70062;51.658;5.658;2024-02-14T03:09:39;101218.64;;;20.74;38.72
80699;BME280;70062;51.658;5.658;2024-02-14T03:13:08;101217.89;;;20.81;38.30
80699;BME280;70062;51.658;5.658;2024-02-14T03:16:35;101214.31;;;20.77;38.38
80699;BME280;70062;51.658;5.658;2024-02-14T03:21:02;101221.45;;;20.63;38.42
80699;BME280;70062;51.658;5.658;2024-02-14T03:24:35;101217.77;;;20.39;38.71
80699;BME280;70062;51.658;5.658;2024-02-14T03:28:06;101226.39;;;20.11;39.23
80699;BME280;70062;51.658;5.658;2024-02-14T03:31:32;101231.08;;;20.32;39.44
80699;BME280;70062;51.658;5.658;2024-02-14T03:35:05;101227.38;;;20.64;39.07
80699;BME280;70062;51.658;5.658;2024-02-14T03:38:53;101224.68;;;20.81;38.74
80699;BME280;70062;51.658;5.658;2024-02-14T03:42:36;101227.51;;;20.84;38.33
80699;BME280;70062;51.658;5.658;2024-02-14T03:46:03;101233.13;;;20.75;38.33
80699;BME280;70062;51.658;5.658;2024-02-14T03:49:37;101234.48;;;20.59;38.49
80699;BME280;70062;51.658;5.658;2024-02-14T03:53:12;101240.69;;;20.33;38.84
80699;BME280;70062;51.658;5.658;2024-02-14T03:56:39;101237.80;;;20.16;39.34
80699;BME280;70062;51.658;5.658;2024-02-14T04:01:14;101232.11;;;20.52;39.23
80699;BME280;70062;51.658;5.658;2024-02-14T04:05:26;101235.81;;;20.79;38.67
80699;BME280;70062;51.658;5.658;2024-02-14T04:08:31;101236.45;;;20.86;38.35
80699;BME280;70062;51.658;5.658;2024-02-14T04:11:58;101242.17;;;20.84;38.37
80699;BME280;70062;51.658;5.658;2024-02-14T04:15:26;101247.75;;;20.72;38.44
80699;BME280;70062;51.658;5.658;2024-02-14T04:18:54;101254.60;;;20.52;38.61
80699;BME280;70062;51.658;5.658;2024-02-14T04:22:29;101258.62;;;20.21;39.07
80699;BME280;70062;51.658;5.658;2024-02-14T04:25:56;101258.70;;;20.36;39.34
80699;BME280;70062;51.658;5.658;2024-02-14T04:29:24;101257.95;;;20.66;39.12
80699;BME280;70062;51.658;5.658;2024-02-14T04:32:51;101250.70;;;20.83;38.54
80699;BME280;70062;51.658;5.658;2024-02-14T04:36:19;101268.56;;;20.87;38.34
80699;BME280;70062;51.658;5.658;2024-02-14T04:39:46;101260.59;;;20.79;38.36
80699;BME280;70062;51.658;5.658;2024-02-14T04:43:14;101256.90;;;20.66;38.45
80699;BME280;70062;51.658;5.658;2024-02-14T04:46:42;101270.52;;;20.44;38.62
80699;BME280;70062;51.658;5.658;2024-02-14T04:50:10;101279.27;;;20.15;39.21
80699;BME280;70062;51.658;5.658;2024-02-14T04:53:45;101275.31;;;20.29;39.57
80699;BME280;70062;51.658;5.658;2024-02-14T04:57:17;101280.75;;;20.62;39.19
80699;BME280;70062;51.658;5.658;2024-02-14T05:00:45;101277.34;;;20.79;38.61
80699;BME280;70062;51.658;5.658;2024-02-14T05:04:21;101273.90;;;20.82;38.38
80699;BME280;70062;51.658;5.658;2024-02-14T05:08:29;101276.55;;;20.74;38.47
80699;BME280;70062;51.658;5.658;2024-02-14T05:13:00;101292.38;;;20.54;38.57
80699;BME280;70062;51.658;5.658;2024-02-14T05:17:26;101292.29;;;20.22;39.14
80699;BME280;70062;51.658;5.658;2024-02-14T05:21:54;101294.33;;;20.40;39.52
80699;BME280;70062;51.658;5.658;2024-02-14T05:26:04;101291.41;;;20.76;38.83
80699;BME280;70062;51.658;5.658;2024-02-14T05:30:35;101289.73;;;20.90;38.53
80699;BME280;70062;51.658;5.658;2024-02-14T05:34:48;101289.34;;;20.88;38.18
80699;BME280;70062;51.658;5.658;2024-02-14T05:39:13;101292.25;;;20.74;38.39
80699;BME280;70062;51.658;5.658;2024-02-14T05:43:49;101302.75;;;20.43;38.71
80699;BME280;70062;51.658;5.658;2024-02-14T05:48:29;101309.89;;;20.41;39.35
80699;BME280;70062;51.658;5.658;2024-02-14T05:53:03;101296.06;;;20.82;38.74
80699;BME280;70062;51.658;5.658;2024-02-14T05:57:38;101302.58;;;20.98;38.28
80699;BME280;70062;51.658;5.658;2024-02-14T06:02:12;101301.80;;;20.93;38.22
80699;BME280;70062;51.658;5.658;2024-02-14T06:06:46;101306.27;;;20.77;38.31
80699;BME280;70062;51.658;5.658;2024-02-14T06:11:37;101309.93;;;20.45;38.69
80699;BME280;70062;51.658;5.658;2024-02-14T06:15:07;101311.94;;;20.39;39.32
80699;BME280;70062;51.658;5.658;2024-02-14T06:18:38;101314.38;;;20.72;39.00
80699;BME280;70062;51.658;5.658;2024-02-14T06:22:17;101316.25;;;20.90;38.55
80699;BME280;70062;51.658;5.658;2024-02-14T06:26:04;101315.76;;;20.92;38.39
80699;BME280;70062;51.658;5.658;2024-02-14T06:30:37;101333.98;;;20.86;38.41
80699;BME280;70062;51.658;5.658;2024-02-14T06:39:49;101345.94;;;20.30;38.98
80699;BME280;70062;51.658;5.658;2024-02-14T06:44:26;101350.79;;;20.47;39.49
80699;BME280;70062;51.658;5.658;2024-02-14T06:49:00;101350.86;;;20.82;38.87
80699;BME280;70062;51.658;5.658;2024-02-14T06:53:35;101349.69;;;20.89;38.45
80699;BME280;70062;51.658;5.658;2024-02-14T06:58:11;101354.60;;;20.87;38.34
80699;BME280;70062;51.658;5.658;2024-02-14T07:02:35;101359.70;;;20.69;38.50
80699;BME280;70062;51.658;5.658;2024-02-14T07:09:38;101365.55;;;20.34;39.54
80699;BME280;70062;51.658;5.658;2024-02-14T07:13:04;101368.42;;;20.69;39.20
80699;BME280;70062;51.658;5.658;2024-02-14T07:48:32;101363.80;;;21.20;38.08
80699;BME280;70062;51.658;5.658;2024-02-14T08:45:01;101394.58;;;21.89;36.79
80699;BME280;70062;51.658;5.658;2024-02-14T09:31:10;101432.42;;;19.09;41.45
80699;BME280;70062;51.658;5.658;2024-02-14T09:34:34;101436.24;;;18.88;41.89
80699;BME280;70062;51.658;5.658;2024-02-14T09:37:05;101434.92;;;18.69;42.17
80699;BME280;70062;51.658;5.658;2024-02-14T09:39:46;101427.34;;;18.53;42.50
80699;BME280;70062;51.658;5.658;2024-02-14T09:42:34;101433.41;;;18.39;42.90
80699;BME280;70062;51.658;5.658;2024-02-14T09:45:31;101426.45;;;18.19;43.44
80699;BME280;70062;51.658;5.658;2024-02-14T09:48:20;101427.98;;;18.31;44.00
80699;BME280;70062;51.658;5.658;2024-02-14T09:51:17;101431.89;;;18.87;43.89
80699;BME280;70062;51.658;5.658;2024-02-14T10:09:48;101445.15;;;21.41;38.79
80699;BME280;70062;51.658;5.658;2024-02-14T10:23:41;101445.80;;;20.94;38.93
80699;BME280;70062;51.658;5.658;2024-02-14T10:28:09;101455.64;;;20.68;39.17
80699;BME280;70062;51.658;5.658;2024-02-14T10:51:16;101475.20;;;19.29;41.63
80699;BME280;70062;51.658;5.658;2024-02-14T11:00:38;101477.63;;;18.80;42.68
80699;BME280;70062;51.658;5.658;2024-02-14T11:05:24;101474.75;;;18.57;43.31
80699;BME280;70062;51.658;5.658;2024-02-14T11:10:07;101474.20;;;18.37;43.77
80699;BME280;70062;51.658;5.658;2024-02-14T11:14:44;101476.67;;;18.19;44.51
80699;BME280;70062;51.658;5.658;2024-02-14T11:23:20;101463.05;;;19.60;43.22
80699;BME280;70062;51.658;5.658;2024-02-14T11:26:26;101459.19;;;20.08;42.23
80699;BME280;70062;51.658;5.658;2024-02-14T11:29:58;101460.91;;;20.34;41.45
80699;BME280;70062;51.658;5.658;2024-02-14T11:32:55;101456.17;;;20.40;41.09
80699;BME280;70062;51.658;5.658;2024-02-14T11:36:22;101454.98;;;20.41;40.88
80699;BME280;70062;51.658;5.658;2024-02-14T11:39:51;101459.64;;;20.31;40.87
80699;BME280;70062;51.658;5.658;2024-02-14T11:43:19;101457.82;;;20.18;40.99
80699;BME280;70062;51.658;5.658;2024-02-14T11:46:46;101457.65;;;20.01;41.14
80699;BME280;70062;51.658;5.658;2024-02-14T11:50:15;101454.14;;;19.82;41.55
80699;BME280;70062;51.658;5.658;2024-02-14T11:53:41;101452.51;;;19.63;41.78
80699;BME280;70062;51.658;5.658;2024-02-14T11:57:07;101449.09;;;19.44;42.29
80699;BME280;70062;51.658;5.658;2024-02-14T12:00:15;101447.98;;;19.27;42.53
80699;BME280;70062;51.658;5.658;2024-02-14T12:03:44;101440.94;;;19.08;42.95
80699;BME280;70062;51.658;5.658;2024-02-14T12:06:34;101446.45;;;18.93;43.33
80699;BME280;70062;51.658;5.658;2024-02-14T12:09:20;101438.90;;;18.75;43.64
80699;BME280;70062;51.658;5.658;2024-02-14T12:12:09;101437.70;;;18.63;43.86
80699;BME280;70062;51.658;5.658;2024-02-14T12:15:40;101438.76;;;18.44;44.29
80699;BME280;70062;51.658;5.658;2024-02-14T12:19:43;101441.81;;;18.28;45.03
80699;BME280;70062;51.658;5.658;2024-02-14T12:23:15;101443.77;;;18.69;45.29
80699;BME280;70062;51.658;5.658;2024-02-14T12:26:53;101436.86;;;19.50;44.26
80699;BME280;70062;51.658;5.658;2024-02-14T12:30:22;101435.70;;;20.19;42.89
80699;BME280;70062;51.658;5.658;2024-02-14T12:33:53;101440.50;;;20.60;41.89
80699;BME280;70062;51.658;5.658;2024-02-14T12:37:21;101448.02;;;20.81;41.27
80699;BME280;70062;51.658;5.658;2024-02-14T12:40:49;101445.34;;;20.87;40.79
80699;BME280;70062;51.658;5.658;2024-02-14T12:44:15;101436.87;;;20.81;40.61
80699;BME280;70062;51.658;5.658;2024-02-14T12:47:41;101437.69;;;20.69;40.63
80699;BME280;70062;51.658;5.658;2024-02-14T12:51:08;101433.21;;;20.53;40.76
80699;BME280;70062;51.658;5.658;2024-02-14T12:54:34;101435.10;;;20.33;40.95
80699;BME280;70062;51.658;5.658;2024-02-14T12:58:00;101435.23;;;20.12;41.19
80699;BME280;70062;51.658;5.658;2024-02-14T13:01:26;101429.03;;;19.90;41.53
80699;BME280;70062;51.658;5.658;2024-02-14T13:04:52;101425.98;;;19.69;41.91
80699;BME280;70062;51.658;5.658;2024-02-14T13:08:18;101424.27;;;19.47;42.13
80699;BME280;70062;51.658;5.658;2024-02-14T13:11:44;101423.10;;;19.26;42.60
80699;BME280;70062;51.658;5.658;2024-02-14T13:15:09;101418.42;;;19.06;42.86
80699;BME280;70062;51.658;5.658;2024-02-14T13:18:35;101412.45;;;18.82;43.35
80699;BME280;70062;51.658;5.658;2024-02-14T13:22:01;101415.77;;;18.69;44.15
80699;BME280;70062;51.658;5.658;2024-02-14T13:25:09;101415.83;;;19.06;44.23
80699;BME280;70062;51.658;5.658;2024-02-14T13:28:23;101414.10;;;19.84;43.38
80699;BME280;70062;51.658;5.658;2024-02-14T13:31:49;101412.90;;;20.68;41.98
80699;BME280;70062;51.658;5.658;2024-02-14T13:34:37;101411.96;;;21.18;40.87
80699;BME280;70062;51.658;5.658;2024-02-14T13:37:43;101406.44;;;21.45;40.32
80699;BME280;70062;51.658;5.658;2024-02-14T13:40:35;101405.21;;;21.59;39.61
80699;BME280;70062;51.658;5.658;2024-02-14T13:43:41;101406.14;;;21.62;39.28
80699;BME280;70062;51.658;5.658;2024-02-14T13:47:07;101403.94;;;21.55;39.21
80699;BME280;70062;51.658;5.658;2024-02-14T13:50:33;101413.88;;;21.40;38.99
80699;BME280;70062;51.658;5.658;2024-02-14T13:53:59;101412.90;;;21.21;39.22
80699;BME280;70062;51.658;5.658;2024-02-14T13:57:25;101420.24;;;21.00;39.38
80699;BME280;70062;51.658;5.658;2024-02-14T14:00:51;101416.86;;;20.75;39.79
80699;BME280;70062;51.658;5.658;2024-02-14T14:04:17;101412.91;;;20.40;40.25
80699;BME280;70062;51.658;5.658;2024-02-14T14:07:43;101412.77;;;20.23;41.12
80699;BME280;70062;51.658;5.658;2024-02-14T14:11:08;101412.31;;;20.45;40.89
80699;BME280;70062;51.658;5.658;2024-02-14T14:14:14;101414.89;;;20.63;40.58
80699;BME280;70062;51.658;5.658;2024-02-14T14:17:03;101412.15;;;20.66;40.43
80699;BME280;70062;51.658;5.658;2024-02-14T14:20:10;101411.80;;;20.65;40.35
80699;BME280;70062;51.658;5.658;2024-02-14T14:22:56;101405.20;;;20.57;40.39
80699;BME280;70062;51.658;5.658;2024-02-14T14:26:22;101408.83;;;20.44;40.57
80699;BME280;70062;51.658;5.658;2024-02-14T14:29:48;101408.13;;;20.27;40.72
80699;BME280;70062;51.658;5.658;2024-02-14T14:33:14;101410.67;;;20.05;41.09
80699;BME280;70062;51.658;5.658;2024-02-14T14:36:40;101408.84;;;19.91;41.88
80699;BME280;70062;51.658;5.658;2024-02-14T14:40:06;101410.98;;;20.39;41.69
80699;BME280;70062;51.658;5.658;2024-02-14T14:43:32;101408.05;;;20.90;40.88
80699;BME280;70062;51.658;5.658;2024-02-14T14:46:58;101400.85;;;21.22;40.15
80699;BME280;70062;51.658;5.658;2024-02-14T14:50:26;101398.45;;;21.36;39.71
80699;BME280;70062;51.658;5.658;2024-02-14T14:53:52;101397.92;;;21.35;39.55
80699;BME280;70062;51.658;5.658;2024-02-14T15:00:32;101397.92;;;21.13;39.54
80699;BME280;70062;51.658;5.658;2024-02-14T15:03:02;101394.25;;;20.90;39.74
80699;BME280;70062;51.658;5.658;2024-02-14T15:05:50;101395.74;;;20.75;39.93
80699;BME280;70062;51.658;5.658;2024-02-14T15:08:52;101400.70;;;20.58;40.21
80699;BME280;70062;51.658;5.658;2024-02-14T15:11:40;101394.71;;;20.37;40.47
80699;BME280;70062;51.658;5.658;2024-02-14T15:14:46;101393.95;;;20.14;40.91
80699;BME280;70062;51.658;5.658;2024-02-14T15:17:13;101392.73;;;19.97;41.16
80699;BME280;70062;51.658;5.658;2024-02-14T15:19:42;101392.42;;;19.80;41.48
80699;BME280;70062;51.658;5.658;2024-02-14T15:22:08;101395.18;;;19.62;41.71
80699;BME280;70062;51.658;5.658;2024-02-14T15:24:35;101390.27;;;19.45;42.00
80699;BME280;70062;51.658;5.658;2024-02-14T15:27:03;101399.02;;;19.31;42.33
80699;BME280;70062;51.658;5.658;2024-02-14T15:29:30;101402.85;;;19.16;42.59
80699;BME280;70062;51.658;5.658;2024-02-14T15:32:16;101402.27;;;19.00;43.02
80699;BME280;70062;51.658;5.658;2024-02-14T15:35:01;101402.05;;;18.84;43.35
80699;BME280;70062;51.658;5.658;2024-02-14T15:37:30;101406.41;;;18.70;43.71
80699;BME280;70062;51.658;5.658;2024-02-14T15:39:59;101406.20;;;18.56;44.01
80699;BME280;70062;51.658;5.658;2024-02-14T15:42:34;101414.58;;;18.44;44.25
80699;BME280;70062;51.658;5.658;2024-02-14T15:44:59;101417.22;;;18.32;44.57
80699;BME280;70062;51.658;5.658;2024-02-14T15:47:25;101410.48;;;18.20;44.83
80699;BME280;70062;51.658;5.658;2024-02-14T15:49:50;101407.96;;;18.11;45.06
80699;BME280;70062;51.658;5.658;2024-02-14T15:52:15;101403.16;;;18.00;45.25
80699;BME280;70062;51.658;5.658;2024-02-14T15:54:43;101404.44;;;17.90;45.53
80699;BME280;70062;51.658;5.658;2024-02-14T15:57:10;101400.70;;;17.81;45.76
80699;BME280;70062;51.658;5.658;2024-02-14T15:59:36;101402.20;;;17.72;45.99
80699;BME280;70062;51.658;5.658;2024-02-14T16:02:03;101398.10;;;17.64;46.28
80699;BME280;70062;51.658;5.658;2024-02-14T16:04:29;101396.38;;;17.52;46.54
80699;BME280;70062;51.658;5.658;2024-02-14T16:06:54;101406.14;;;17.48;46.75
80699;BME280;70062;51.658;5.658;2024-02-14T16:09:21;101406.95;;;17.40;46.97
80699;BME280;70062;51.658;5.658;2024-02-14T16:11:46;101404.58;;;17.32;47.15
80699;BME280;70062;51.658;5.658;2024-02-14T16:14:12;101405.55;;;17.24;47.34
80699;BME280;70062;51.658;5.658;2024-02-14T16:16:37;101407.44;;;17.18;47.78
80699;BME280;70062;51.658;5.658;2024-02-14T16:19:02;101408.80;;;17.17;48.22
80699;BME280;70062;51.658;5.658;2024-02-14T16:21:29;101409.32;;;17.44;48.31
80699;BME280;70062;51.658;5.658;2024-02-14T16:23:54;101411.50;;;18.00;47.73
80699;BME280;70062;51.658;5.658;2024-02-14T16:26:20;101406.55;;;18.62;46.88
80699;BME280;70062;51.658;5.658;2024-02-14T16:28:47;101401.97;;;19.16;45.89
80699;BME280;70062;51.658;5.658;2024-02-14T16:31:22;101402.54;;;19.56;44.97
80699;BME280;70062;51.658;5.658;2024-02-14T16:33:47;101402.81;;;19.86;44.16
80699;BME280;70062;51.658;5.658;2024-02-14T16:36:13;101402.45;;;20.03;43.62
80699;BME280;70062;51.658;5.658;2024-02-14T16:38:38;101399.73;;;20.15;43.24
80699;BME280;70062;51.658;5.658;2024-02-14T16:41:04;101398.08;;;20.21;42.93
80699;BME280;70062;51.658;5.658;2024-02-14T16:43:29;101395.09;;;20.20;42.63
80699;BME280;70062;51.658;5.658;2024-02-14T16:45:55;101393.80;;;20.16;42.55
80699;BME280;70062;51.658;5.658;2024-02-14T16:48:21;101385.45;;;20.07;42.58
80699;BME280;70062;51.658;5.658;2024-02-14T16:50:47;101389.96;;;19.97;42.66
80699;BME280;70062;51.658;5.658;2024-02-14T16:53:12;101399.73;;;19.88;42.78
80699;BME280;70062;51.658;5.658;2024-02-14T16:55:37;101401.23;;;19.77;42.89
80699;BME280;70062;51.658;5.658;2024-02-14T16:58:03;101407.61;;;19.65;43.03
80699;BME280;70062;51.658;5.658;2024-02-14T17:00:28;101411.52;;;19.53;43.24
80699;BME280;70062;51.658;5.658;2024-02-14T17:02:54;101422.20;;;19.41;43.54
80699;BME280;70062;51.658;5.658;2024-02-14T17:05:19;101423.48;;;19.28;43.67
80699;BME280;70062;51.658;5.658;2024-02-14T17:07:50;101424.25;;;19.16;43.90
80699;BME280;70062;51.658;5.658;2024-02-14T17:10:16;101434.70;;;19.03;44.16
80699;BME280;70062;51.658;5.658;2024-02-14T17:12:41;101433.15;;;18.89;44.38
80699;BME280;70062;51.658;5.658;2024-02-14T17:15:07;101436.84;;;18.76;44.73
80699;BME280;70062;51.658;5.658;2024-02-14T17:17:35;101436.83;;;18.63;44.71
80699;BME280;70062;51.658;5.658;2024-02-14T17:20:00;101445.36;;;18.50;45.17
80699;BME280;70062;51.658;5.658;2024-02-14T17:22:26;101447.40;;;18.36;45.52
80699;BME280;70062;51.658;5.658;2024-02-14T17:24:51;101451.48;;;18.26;46.00
80699;BME280;70062;51.658;5.658;2024-02-14T17:27:20;101452.31;;;18.44;46.37
80699;BME280;70062;51.658;5.658;2024-02-14T17:29:48;101451.63;;;18.90;46.08
80699;BME280;70062;51.658;5.658;2024-02-14T17:32:13;101448.87;;;19.49;45.26
80699;BME280;70062;51.658;5.658;2024-02-14T17:34:39;101441.96;;;20.01;44.28
80699;BME280;70062;51.658;5.658;2024-02-14T17:37:06;101451.62;;;20.40;43.37
80699;BME280;70062;51.658;5.658;2024-02-14T17:39:31;101454.02;;;20.66;42.77
80699;BME280;70062;51.658;5.658;2024-02-14T17:41:57;101457.97;;;20.81;42.19
80699;BME280;70062;51.658;5.658;2024-02-14T17:44:22;101463.02;;;20.90;41.81
80699;BME280;70062;51.658;5.658;2024-02-14T17:46:48;101466.38;;;20.92;41.57
80699;BME280;70062;51.658;5.658;2024-02-14T17:49:13;101468.42;;;20.89;41.32
80699;BME280;70062;51.658;5.658;2024-02-14T17:51:39;101468.98;;;20.82;41.24
80699;BME280;70062;51.658;5.658;2024-02-14T17:54:07;101470.19;;;20.72;41.38
80699;BME280;70062;51.658;5.658;2024-02-14T17:56:33;101473.67;;;20.62;41.40
80699;BME280;70062;51.658;5.658;2024-02-14T17:58:58;101475.86;;;20.48;41.52
80699;BME280;70062;51.658;5.658;2024-02-14T18:01:25;101482.35;;;20.33;41.68
80699;BME280;70062;51.658;5.658;2024-02-14T18:03:50;101480.11;;;20.17;41.88
80699;BME280;70062;51.658;5.658;2024-02-14T18:06:16;101485.02;;;20.01;42.14
80699;BME280;70062;51.658;5.658;2024-02-14T18:08:41;101493.06;;;19.86;42.32
80699;BME280;70062;51.658;5.658;2024-02-14T18:11:09;101498.46;;;19.70;42.57
80699;BME280;70062;51.658;5.658;2024-02-14T18:13:36;101498.62;;;19.54;42.94
80699;BME280;70062;51.658;5.658;2024-02-14T18:16:01;101498.83;;;19.34;43.20
80699;BME280;70062;51.658;5.658;2024-02-14T18:18:27;101502.89;;;19.15;43.71
80699;BME280;70062;51.658;5.658;2024-02-14T18:20:52;101501.80;;;19.19;44.07
80699;BME280;70062;51.658;5.658;2024-02-14T18:23:18;101504.34;;;19.39;43.91
80699;BME280;70062;51.658;5.658;2024-02-14T18:25:45;101506.01;;;19.57;43.63
80699;BME280;70062;51.658;5.658;2024-02-14T18:28:10;101502.45;;;19.69;43.51
80699;BME280;70062;51.658;5.658;2024-02-14T18:30:35;101502.91;;;19.74;43.28
80699;BME280;70062;51.658;5.658;2024-02-14T18:33:01;101503.29;;;19.75;43.20
80699;BME280;70062;51.658;5.658;2024-02-14T18:35:27;101504.98;;;19.73;43.04
80699;BME280;70062;51.658;5.658;2024-02-14T18:37:52;101507.63;;;19.67;43.08
80699;BME280;70062;51.658;5.658;2024-02-14T18:40:19;101507.61;;;19.59;43.23
80699;BME280;70062;51.658;5.658;2024-02-14T18:42:44;101514.02;;;19.50;43.30
80699;BME280;70062;51.658;5.658;2024-02-14T18:45:10;101516.20;;;19.40;43.45
80699;BME280;70062;51.658;5.658;2024-02-14T18:47:36;101514.34;;;19.28;43.53
80699;BME280;70062;51.658;5.658;2024-02-14T18:50:03;101511.27;;;19.16;43.79
80699;BME280;70062;51.658;5.658;2024-02-14T18:52:28;101511.64;;;19.04;44.06
80699;BME280;70062;51.658;5.658;2024-02-14T18:54:54;101512.82;;;18.89;44.18
80699;BME280;70062;51.658;5.658;2024-02-14T18:57:21;101513.08;;;18.72;44.66
80699;BME280;70062;51.658;5.658;2024-02-14T18:59:48;101513.32;;;18.75;45.13
80699;BME280;70062;51.658;5.658;2024-02-14T19:02:14;101510.21;;;18.96;45.04
80699;BME280;70062;51.658;5.658;2024-02-14T19:04:40;101508.20;;;19.18;44.81
80699;BME280;70062;51.658;5.658;2024-02-14T19:07:05;101511.08;;;19.51;44.60
80699;BME280;70062;51.658;5.658;2024-02-14T19:09:36;101506.08;;;20.00;43.85
80699;BME280;70062;51.658;5.658;2024-02-14T19:12:02;101504.48;;;20.50;43.14
80699;BME280;70062;51.658;5.658;2024-02-14T19:14:28;101505.70;;;20.87;42.29
80699;BME280;70062;51.658;5.658;2024-02-14T19:16:53;101504.55;;;21.11;41.68
80699;BME280;70062;51.658;5.658;2024-02-14T19:19:18;101506.54;;;21.25;41.12
80699;BME280;70062;51.658;5.658;2024-02-14T19:21:45;101505.61;;;21.31;40.84
80699;BME280;70062;51.658;5.658;2024-02-14T19:24:11;101506.48;;;21.31;40.66
80699;BME280;70062;51.658;5.658;2024-02-14T19:26:40;101500.45;;;21.25;40.58
80699;BME280;70062;51.658;5.658;2024-02-14T19:29:05;101500.80;;;21.16;40.36
80699;BME280;70062;51.658;5.658;2024-02-14T19:31:30;101506.91;;;21.05;40.57
80699;BME280;70062;51.658;5.658;2024-02-14T19:33:56;101506.16;;;20.92;40.56
80699;BME280;70062;51.658;5.658;2024-02-14T19:36:22;101510.09;;;20.79;40.67
80699;BME280;70062;51.658;5.658;2024-02-14T19:38:53;101519.42;;;20.64;41.13
80699;BME280;70062;51.658;5.658;2024-02-14T19:41:19;101522.78;;;20.48;41.24
80699;BME280;70062;51.658;5.658;2024-02-14T19:43:45;101521.42;;;20.34;41.42
80699;BME280;70062;51.658;5.658;2024-02-14T19:46:10;101517.77;;;20.17;41.65
80699;BME280;70062;51.658;5.658;2024-02-14T19:48:38;101515.88;;;20.01;41.96
80699;BME280;70062;51.658;5.658;2024-02-14T19:51:04;101513.43;;;19.85;42.16